BAW2158 TGPY-TLPL
Flight info
| Callsign | BAW2158 |
|---|---|
| Flight time | 0h 24m |
| Altitude | 23000 |
| Route | DCT |
| Aircraft | A332/H-SDE3GHIJ2J3J5M1RVWXY/LB2D1 |
Departure
| Time | 2026-04-20 13:43 |
|---|---|
| Airport | Maurice Bishop International Airport (TGPY) |
Arrival
| Time | 2026-04-20 14:07 |
|---|---|
| Airport | Hewanorra International Airport (TLPL) |
| Time | Latitude | Longitude | Altitude | Speed | Heading |
|---|---|---|---|---|---|
| 2026-04-20 13:37 | 12.00657 | -61.78579 | 33 ft | 0 kts | 184° |
| 2026-04-20 13:40 | 12.00656 | -61.78580 | 33 ft | 0 kts | 184° |
| 2026-04-20 13:40 | 12.00655 | -61.78580 | 33 ft | 0 kts | 184° |
| 2026-04-20 13:41 | 12.00558 | -61.78599 | 31 ft | 34 kts | 193° |
| 2026-04-20 13:42 | 12.00428 | -61.78639 | 33 ft | 8 kts | 172° |
| 2026-04-20 13:42 | 12.00409 | -61.78461 | 31 ft | 72 kts | 92° |
| 2026-04-20 13:42 | 12.00409 | -61.77574 | 223 ft | 166 kts | 88° |
| 2026-04-20 13:43 | 12.00948 | -61.76520 | 1811 ft | 179 kts | 42° |
| 2026-04-20 13:43 | 12.02149 | -61.76010 | 3720 ft | 198 kts | 19° |
| 2026-04-20 13:43 | 12.03490 | -61.75484 | 5407 ft | 220 kts | 29° |
| 2026-04-20 13:43 | 12.05031 | -61.74904 | 6696 ft | 251 kts | 18° |
| 2026-04-20 13:44 | 12.06777 | -61.74407 | 8059 ft | 269 kts | 17° |
| 2026-04-20 13:44 | 12.08621 | -61.73877 | 9548 ft | 281 kts | 15° |
| 2026-04-20 13:44 | 12.10523 | -61.73311 | 10789 ft | 298 kts | 15° |
| 2026-04-20 13:44 | 12.12640 | -61.72664 | 11485 ft | 334 kts | 16° |
| 2026-04-20 13:45 | 12.14963 | -61.71940 | 12055 ft | 369 kts | 16° |
| 2026-04-20 13:45 | 12.17484 | -61.71145 | 13025 ft | 388 kts | 17° |
| 2026-04-20 13:45 | 12.20110 | -61.70313 | 14167 ft | 400 kts | 16° |
| 2026-04-20 13:45 | 12.22802 | -61.69459 | 15316 ft | 407 kts | 16° |
| 2026-04-20 13:46 | 12.25533 | -61.68592 | 16452 ft | 414 kts | 16° |
| 2026-04-20 13:46 | 12.28307 | -61.67712 | 17596 ft | 419 kts | 16° |
| 2026-04-20 13:46 | 12.31122 | -61.66818 | 18587 ft | 426 kts | 15° |
| 2026-04-20 13:46 | 12.33942 | -61.65922 | 19414 ft | 432 kts | 15° |
| 2026-04-20 13:47 | 12.36835 | -61.65004 | 20262 ft | 438 kts | 15° |
| 2026-04-20 13:47 | 12.39778 | -61.64068 | 21082 ft | 444 kts | 15° |
| 2026-04-20 13:47 | 12.42720 | -61.63133 | 21865 ft | 449 kts | 15° |
| 2026-04-20 13:47 | 12.45729 | -61.62177 | 22584 ft | 456 kts | 15° |
| 2026-04-20 13:48 | 12.48791 | -61.61204 | 23249 ft | 464 kts | 14° |
| 2026-04-20 13:48 | 12.51890 | -61.60218 | 23619 ft | 464 kts | 14° |
| 2026-04-20 13:48 | 12.54971 | -61.59236 | 23613 ft | 460 kts | 14° |
| 2026-04-20 13:48 | 12.58025 | -61.58262 | 23381 ft | 459 kts | 14° |
| 2026-04-20 13:49 | 12.61073 | -61.57292 | 23117 ft | 458 kts | 14° |
| 2026-04-20 13:49 | 12.64118 | -61.56322 | 23019 ft | 458 kts | 14° |
| 2026-04-20 13:49 | 12.67129 | -61.55363 | 23016 ft | 458 kts | 14° |
| 2026-04-20 13:49 | 12.70181 | -61.54391 | 23016 ft | 458 kts | 14° |
| 2026-04-20 13:50 | 12.73231 | -61.53419 | 23017 ft | 457 kts | 14° |
| 2026-04-20 13:50 | 12.76246 | -61.52458 | 23017 ft | 457 kts | 14° |
| 2026-04-20 13:50 | 12.79288 | -61.51488 | 23019 ft | 457 kts | 14° |
| 2026-04-20 13:50 | 12.82335 | -61.50517 | 23020 ft | 457 kts | 14° |
| 2026-04-20 13:51 | 12.85373 | -61.49548 | 23018 ft | 457 kts | 14° |
| 2026-04-20 13:51 | 12.88421 | -61.48575 | 22852 ft | 456 kts | 14° |
| 2026-04-20 13:51 | 12.91433 | -61.47613 | 22048 ft | 451 kts | 14° |
| 2026-04-20 13:51 | 12.94429 | -61.46656 | 21009 ft | 449 kts | 15° |
| 2026-04-20 13:52 | 12.97377 | -61.45714 | 20103 ft | 444 kts | 15° |
| 2026-04-20 13:52 | 13.00313 | -61.44776 | 19209 ft | 439 kts | 15° |
| 2026-04-20 13:52 | 13.03220 | -61.43847 | 18327 ft | 434 kts | 16° |
| 2026-04-20 13:52 | 13.06095 | -61.42929 | 17376 ft | 429 kts | 16° |
| 2026-04-20 13:53 | 13.08883 | -61.42037 | 16508 ft | 422 kts | 16° |
| 2026-04-20 13:53 | 13.11680 | -61.41143 | 15564 ft | 417 kts | 16° |
| 2026-04-20 13:53 | 13.14433 | -61.40263 | 14696 ft | 410 kts | 17° |
| 2026-04-20 13:53 | 13.17143 | -61.39396 | 13852 ft | 404 kts | 17° |
| 2026-04-20 13:54 | 13.19815 | -61.38541 | 12934 ft | 398 kts | 17° |
| 2026-04-20 13:54 | 13.22435 | -61.37702 | 12177 ft | 389 kts | 17° |
| 2026-04-20 13:54 | 13.24957 | -61.36895 | 11477 ft | 381 kts | 17° |
| 2026-04-20 13:54 | 13.27471 | -61.36090 | 10762 ft | 375 kts | 17° |
| 2026-04-20 13:55 | 13.29908 | -61.35310 | 10536 ft | 354 kts | 17° |
| 2026-04-20 13:55 | 13.32162 | -61.34588 | 10451 ft | 331 kts | 17° |
| 2026-04-20 13:55 | 13.34292 | -61.33905 | 10353 ft | 311 kts | 17° |
| 2026-04-20 13:55 | 13.36301 | -61.33261 | 10245 ft | 295 kts | 17° |
| 2026-04-20 13:56 | 13.38227 | -61.32644 | 10112 ft | 284 kts | 16° |
| 2026-04-20 13:56 | 13.40083 | -61.32049 | 9963 ft | 275 kts | 16° |
| 2026-04-20 13:56 | 13.41906 | -61.31465 | 9540 ft | 274 kts | 17° |
| 2026-04-20 13:56 | 13.43703 | -61.30889 | 9134 ft | 273 kts | 17° |
| 2026-04-20 13:57 | 13.45511 | -61.30310 | 8759 ft | 270 kts | 17° |
| 2026-04-20 13:57 | 13.47300 | -61.29736 | 8378 ft | 268 kts | 18° |
| 2026-04-20 13:57 | 13.49077 | -61.29167 | 8003 ft | 265 kts | 18° |
| 2026-04-20 13:57 | 13.50841 | -61.28601 | 7626 ft | 263 kts | 19° |
| 2026-04-20 13:58 | 13.52560 | -61.28050 | 7255 ft | 262 kts | 19° |
| 2026-04-20 13:58 | 13.54303 | -61.27491 | 6887 ft | 262 kts | 19° |
| 2026-04-20 13:58 | 13.56049 | -61.26930 | 6508 ft | 263 kts | 20° |
| 2026-04-20 13:58 | 13.57797 | -61.26369 | 6110 ft | 263 kts | 20° |
| 2026-04-20 13:59 | 13.59545 | -61.25807 | 5732 ft | 262 kts | 20° |
| 2026-04-20 13:59 | 13.61285 | -61.25248 | 5340 ft | 261 kts | 20° |
| 2026-04-20 13:59 | 13.62998 | -61.24698 | 4963 ft | 260 kts | 20° |
| 2026-04-20 13:59 | 13.64726 | -61.24143 | 4561 ft | 260 kts | 20° |
| 2026-04-20 14:00 | 13.66451 | -61.23589 | 4179 ft | 258 kts | 21° |
| 2026-04-20 14:00 | 13.68169 | -61.23037 | 3772 ft | 258 kts | 20° |
| 2026-04-20 14:00 | 13.69883 | -61.22486 | 3348 ft | 257 kts | 21° |
| 2026-04-20 14:00 | 13.71507 | -61.21795 | 3017 ft | 255 kts | 34° |
| 2026-04-20 14:01 | 13.72763 | -61.20562 | 2639 ft | 248 kts | 59° |
| 2026-04-20 14:01 | 13.73333 | -61.18899 | 2119 ft | 247 kts | 83° |
| 2026-04-20 14:01 | 13.73403 | -61.17142 | 1835 ft | 241 kts | 89° |
| 2026-04-20 14:01 | 13.73384 | -61.15496 | 1772 ft | 225 kts | 90° |
| 2026-04-20 14:02 | 13.73363 | -61.13940 | 1781 ft | 209 kts | 89° |
| 2026-04-20 14:02 | 13.73349 | -61.12489 | 1778 ft | 196 kts | 89° |
| 2026-04-20 14:02 | 13.73342 | -61.11132 | 1778 ft | 184 kts | 89° |
| 2026-04-20 14:02 | 13.73337 | -61.09871 | 1799 ft | 166 kts | 89° |
| 2026-04-20 14:03 | 13.73334 | -61.08775 | 1785 ft | 141 kts | 88° |
| 2026-04-20 14:03 | 13.73330 | -61.07875 | 1766 ft | 114 kts | 86° |
| 2026-04-20 14:03 | 13.73329 | -61.07102 | 1768 ft | 105 kts | 86° |
| 2026-04-20 14:03 | 13.73331 | -61.06352 | 1799 ft | 105 kts | 88° |
| 2026-04-20 14:04 | 13.73332 | -61.05857 | 1797 ft | 104 kts | 89° |
| 2026-04-20 14:04 | 13.73333 | -61.05107 | 1626 ft | 104 kts | 89° |
| 2026-04-20 14:04 | 13.73334 | -61.04123 | 1326 ft | 103 kts | 87° |
| 2026-04-20 14:04 | 13.73335 | -61.03623 | 1197 ft | 106 kts | 84° |
| 2026-04-20 14:05 | 13.73335 | -61.02857 | 1092 ft | 108 kts | 84° |
| 2026-04-20 14:05 | 13.73335 | -61.02090 | 965 ft | 106 kts | 84° |
| 2026-04-20 14:05 | 13.73336 | -61.01339 | 818 ft | 104 kts | 86° |
| 2026-04-20 14:05 | 13.73337 | -61.00593 | 671 ft | 104 kts | 88° |
| 2026-04-20 14:06 | 13.73337 | -60.99857 | 518 ft | 103 kts | 86° |
| 2026-04-20 14:06 | 13.73336 | -60.99132 | 432 ft | 101 kts | 87° |
| 2026-04-20 14:06 | 13.73334 | -60.98407 | 394 ft | 101 kts | 87° |
| 2026-04-20 14:06 | 13.73339 | -60.97675 | 270 ft | 105 kts | 89° |
| 2026-04-20 14:07 | 13.73342 | -60.96911 | 132 ft | 107 kts | 90° |
| 2026-04-20 14:07 | 13.73345 | -60.96163 | 29 ft | 97 kts | 91° |
| 2026-04-20 14:07 | 13.73339 | -60.95606 | 23 ft | 51 kts | 90° |
| 2026-04-20 14:07 | 13.73339 | -60.95310 | 21 ft | 40 kts | 85° |
| 2026-04-20 14:08 | 13.73405 | -60.95159 | 20 ft | 18 kts | 10° |
| 2026-04-20 14:08 | 13.73567 | -60.95098 | 22 ft | 10 kts | 8° |
| 2026-04-20 14:08 | 13.73570 | -60.95097 | 22 ft | 0 kts | 8° |